Flight Track Log - Related Links

Times and Time Zones

All times are in EDT time to prevent confusion due to time zone crossing. See the N8387Z flight status page for this flight to view local times or setup timezone preferences in your user account.

Time Position Orientation Groundspeed Altitude Reporting Facility
EDT Latitude Longitude Course Direction KTS MPH feet Rate Location/Type
Thu 09:28:16 AM 38.5500 -90.1333 123° Southeast 102 117 1,000  Level Gateway (St. Louis) TRACON
Thu 09:29:16 AM 38.5333 -90.1000 123° Southeast 93 107 1,700 553 Climbing Gateway (St. Louis) TRACON
Thu 09:30:37 AM 38.5078 -90.1044 188° South 104 120 2,300 579 Climbing Kansas City Center
Thu 09:31:41 AM 38.4803 -90.1131 194° South 102 117 3,100 774 Climbing Kansas City Center
Thu 09:32:41 AM 38.4469 -90.1200 189° South 101 116 3,900 843 Climbing Kansas City Center
Thu 09:33:42 AM 38.4178 -90.1239 186° South 103 119 4,800 528 Climbing Kansas City Center
Thu 09:34:46 AM 38.3858 -90.1253 182° South 108 124 5,000 96 Climbing Kansas City Center
Thu 09:35:47 AM 38.3428 -90.1300 185° South 138 159 5,000  Level Kansas City Center
Thu 09:36:49 AM 38.2983 -90.1353 185° South 155 178 5,000  Level Kansas City Center
Thu 09:37:51 AM 38.2544 -90.1400 185° South 157 181 5,000  Level Kansas City Center
Thu 09:38:55 AM 38.2006 -90.1475 186° South 161 185 5,000  Level Kansas City Center
Thu 09:39:56 AM 38.1547 -90.1531 185° South 162 186 5,000  Level Kansas City Center
Thu 09:40:57 AM 38.1114 -90.1583 185° South 159 183 5,000  Level Kansas City Center
Thu 09:42:01 AM 38.0667 -90.1639 186° South 160 184 5,000  Level Kansas City Center
Thu 09:43:01 AM 38.0219 -90.1722 188° South 162 186 5,000  Level Kansas City Center
Thu 09:44:06 AM 37.9764 -90.1775 185° South 165 190 5,000  Level Kansas City Center
Thu 09:45:06 AM 37.9231 -90.1839 185° South 160 184 5,000  Level Kansas City Center
Thu 09:46:06 AM 37.8778 -90.1894 186° South 162 186 5,000  Level Kansas City Center
Thu 09:47:11 AM 37.8328 -90.1969 187° South 162 186 5,000  Level Kansas City Center
Thu 09:48:11 AM 37.7889 -90.2022 185° South 161 185 5,000  Level Kansas City Center
Thu 09:49:15 AM 37.7439 -90.2008 179° South 160 184 5,000  Level Kansas City Center
Thu 09:50:16 AM 37.6983 -90.2092 188° South 162 186 5,000  Level Kansas City Center
Thu 09:51:17 AM 37.6442 -90.2131 183° South 163 188 5,000  Level Kansas City Center
Thu 09:52:21 AM 37.5986 -90.2228 190° South 164 189 5,000  Level Kansas City Center
Thu 09:53:21 AM 37.5542 -90.2269 184° South 162 186 5,000  Level Kansas City Center
Thu 09:54:25 AM 37.5103 -90.2306 184° South 159 183 5,000  Level Kansas City Center
Thu 09:55:26 AM 37.4653 -90.2356 185° South 161 185 5,000  Level Kansas City Center
Thu 09:56:27 AM 37.4200 -90.2394 184° South 162 186 5,000 48 Level Kansas City Center
Thu 09:57:31 AM 37.3664 -90.2450 185° South 162 186 5,100  Climbing Kansas City Center
Thu 09:58:32 AM 37.3261 -90.2517 187° South 160 184 5,000 -49 Descending Kansas City Center
Thu 09:59:33 AM 37.2817 -90.2614 190° South 162 186 5,000  Level Kansas City Center
Thu 10:00:37 AM 37.2281 -90.2667 184° South 161 185 5,000  Level Kansas City Center
Thu 10:01:38 AM 37.1836 -90.2753 189° South 160 184 5,000  Level Kansas City Center
Thu 10:02:41 AM 37.1383 -90.2786 183° South 162 186 5,000 -49 Level Kansas City Center
Thu 10:03:41 AM 37.0936 -90.2828 184° South 162 186 4,900 -339 Descending Kansas City Center
Thu 10:04:45 AM 37.0461 -90.2886 186° South 167 192 4,300 -726 Descending Kansas City Center
Thu 10:05:45 AM 36.9961 -90.2936 185° South 173 199 3,400 -871 Descending Kansas City Center
Thu 10:06:49 AM 36.9372 -90.3064 190° South 176 203 2,500 -726 Descending Kansas City Center
Thu 10:07:49 AM 36.8917 -90.3194 193° South 174 200 1,900 -484 Descending Kansas City Center
Thu 10:08:53 AM 36.8472 -90.3239 185° South 168 193 1,500 -480 Descending Kansas City Center
Thu 10:09:54 AM 36.8081 -90.3239 180° South 158 182 900 -387 Descending Kansas City Center
Thu 10:10:57 AM 36.7633 -90.3258 182° South 155 178 700 -190 Descending Kansas City Center

Login

Don't have an account? Register now (free) for customized features, flight alerts, and more!